Terminal Aerodrome Forecast
Issued by NWS

Home | Current Version | Previous Version | Text Only | Print | Product List | Glossary On
Versions: 1 2 3 4 5 6 7 8 9 10 11 12 13 14
000
FTUS44 KLZK 302300
TAFADF
TAF
KADF 302338Z 3100/3124 18004KT P6SM BKN060
     FM310200 19003KT P6SM SCT025 BKN050
     FM310800 24003KT P6SM VCSH OVC025 PROB30 3109/3115 5SM -SHRA BR
      OVC015
     FM311500 25004KT P6SM OVC015
     FM311800 23006KT P6SM BKN040=

USA.gov is the U.S. government's official web portal to all federal, state and local government web resources and services.